Carr, Colorado
Current Conditions -  °F | °C
As of 6:56 PM on Friday 31 Oct 2014 (Local Time) from KFEW Reporting Station
Scattered Clouds Scattered Clouds  
Wind Chill: 31°   Ceiling: Unl
Heat Index: 37°   Visibility: 10mi
Dew Point: 27°   Wind: 7mph
Humidity: 68%   Direction: 220°SW
Pressure: 30.09"   Gusts: NA
Location:  40.9°N, 104.88°W
Report Text: KFEW 010056Z AUTO 22006KT 10SM SCT240 03/M03 A3009 RMK AO2 SLP212 T00261028 $
Loading
Personal Weather Stations






























Interactive Weather Map
Tropical Storm Tracking
New forecast layout! Learn more

10-Day Weather Forecast

Advertisements
Track Severe Weather on mobile